Time;durP1;ratioP1;P1;durP2;ratioP2;P2;SDS_P1;SDS_P2;PMS_P1;PMS_P2;Temp;Humidity;BMP_temperature;BMP_pressure;BME280_temperature;BME280_humidity;BME280_pressure;Samples;Min_cycle;Max_cycle;Signal;HPM_P1;HPM_P2
2022/01/14 00:01:38;;;;;;;9.85;5.50;;;;;;;;;;5041990;28;20025;-81
2022/01/14 00:04:04;;;;;;;13.98;5.88;;;;;;;;;;5043265;28;20394;-81
2022/01/14 00:06:29;;;;;;;9.25;4.93;;;;;;;;;;5042858;28;20032;-80
2022/01/14 00:09:01;;;;;;;8.60;4.68;;;;;;;;;;5042653;28;20040;-80
2022/01/14 00:11:29;;;;;;;11.25;5.70;;;;;;;;;;5024123;28;20021;-80
2022/01/14 00:14:08;;;;;;;12.63;5.22;;;;;;;;;;5042124;28;20393;-81
2022/01/14 00:16:33;;;;;;;11.15;5.65;;;;;;;;;;5023487;28;20028;-81
2022/01/14 00:18:59;;;;;;;8.80;4.55;;;;;;;;;;5041553;28;20025;-81
2022/01/14 00:21:28;;;;;;;9.32;4.90;;;;;;;;;;5024531;28;20025;-80
2022/01/14 00:24:05;;;;;;;8.85;4.85;;;;;;;;;;5024800;28;20093;-80
2022/01/14 00:32:06;;;;;;;8.73;5.30;;;;;;;;;;5042066;28;20080;-81
2022/01/14 00:34:32;;;;;;;12.38;5.47;;;;;;;;;;5042589;28;20033;-82
2022/01/14 00:36:59;;;;;;;8.40;5.07;;;;;;;;;;5041662;28;20025;-81
2022/01/14 00:39:26;;;;;;;12.93;5.20;;;;;;;;;;5040344;28;20075;-82
2022/01/14 00:41:51;;;;;;;13.68;5.35;;;;;;;;;;5041025;28;20031;-80
2022/01/14 00:44:16;;;;;;;11.77;5.53;;;;;;;;;;5040337;28;20048;-81
2022/01/14 00:46:44;;;;;;;10.18;5.80;;;;;;;;;;5025255;28;20103;-80
2022/01/14 00:49:11;;;;;;;11.50;5.85;;;;;;;;;;5041637;28;20021;-82
2022/01/14 00:51:37;;;;;;;9.85;5.63;;;;;;;;;;5043048;28;20028;-81
2022/01/14 00:54:04;;;;;;;10.10;5.30;;;;;;;;;;5044130;28;20450;-81
2022/01/14 00:56:34;;;;;;;11.10;5.55;;;;;;;;;;5044165;28;20025;-81
2022/01/14 00:59:15;;;;;;;11.13;6.07;;;;;;;;;;5039471;28;20079;-82
2022/01/14 01:01:45;;;;;;;10.05;5.55;;;;;;;;;;5021899;28;20068;-80
2022/01/14 01:04:13;;;;;;;11.45;5.65;;;;;;;;;;5039517;28;20496;-79
2022/01/14 01:06:40;;;;;;;11.20;5.28;;;;;;;;;;5036773;28;20466;-81
2022/01/14 01:09:10;;;;;;;10.45;5.40;;;;;;;;;;5038504;28;20030;-80
2022/01/14 01:11:41;;;;;;;10.15;4.97;;;;;;;;;;5036635;28;20483;-80
2022/01/14 01:14:23;;;;;;;13.50;5.93;;;;;;;;;;5036397;28;20036;-80
2022/01/14 01:16:48;;;;;;;13.40;6.35;;;;;;;;;;5038176;28;20021;-81
2022/01/14 01:19:14;;;;;;;9.13;5.45;;;;;;;;;;5037744;28;20104;-80
2022/01/14 01:21:40;;;;;;;10.73;5.47;;;;;;;;;;5038413;28;20056;-81
2022/01/14 01:24:08;;;;;;;11.90;5.85;;;;;;;;;;5020821;28;20038;-82
2022/01/14 01:26:37;;;;;;;12.18;5.75;;;;;;;;;;5019374;28;20021;-80
2022/01/14 01:29:28;;;;;;;9.98;5.72;;;;;;;;;;5038932;28;20036;-80
2022/01/14 01:31:50;;;;;;;11.20;5.68;;;;;;;;;;5038803;28;20026;-81
2022/01/14 01:34:24;;;;;;;12.98;5.97;;;;;;;;;;5021430;28;20168;-81
2022/01/14 01:36:53;;;;;;;;;;;;;;;;;;5039166;28;20034;-80
2022/01/14 01:39:21;;;;;;;11.25;5.60;;;;;;;;;;5038084;28;19962;-78
2022/01/14 01:41:56;;;;;;;10.80;5.57;;;;;;;;;;5038729;28;20113;-81
2022/01/14 01:44:23;;;;;;;9.05;4.45;;;;;;;;;;5038596;28;20036;-80
2022/01/14 01:46:50;;;;;;;8.93;5.53;;;;;;;;;;5037079;28;20026;-81
2022/01/14 01:49:18;;;;;;;10.80;5.57;;;;;;;;;;5023777;28;20037;-81
2022/01/14 01:51:45;;;;;;;11.75;5.47;;;;;;;;;;5039793;28;20025;-81
2022/01/14 01:54:11;;;;;;;10.77;5.93;;;;;;;;;;5040077;28;20498;-81
2022/01/14 01:56:36;;;;;;;12.30;5.10;;;;;;;;;;5042062;28;20025;-80
2022/01/14 01:59:02;;;;;;;13.63;6.32;;;;;;;;;;5042502;28;20041;-81
2022/01/14 02:01:28;;;;;;;10.30;5.32;;;;;;;;;;5042009;28;20079;-81
2022/01/14 02:03:54;;;;;;;12.18;6.25;;;;;;;;;;5024123;28;20029;-80
2022/01/14 02:06:21;;;;;;;10.52;5.63;;;;;;;;;;5023696;28;20052;-81
2022/01/14 02:08:47;;;;;;;11.18;5.40;;;;;;;;;;5042009;28;20037;-80
2022/01/14 02:11:12;;;;;;;13.10;6.78;;;;;;;;;;5022083;28;20029;-80
2022/01/14 02:13:38;;;;;;;13.90;6.07;;;;;;;;;;5022073;28;20017;-80
2022/01/14 02:18:47;;;;;;;17.58;6.32;;;;;;;;;;5039022;28;20061;-81
2022/01/14 02:26:51;;;;;;;17.00;6.50;;;;;;;;;;5038726;28;20042;-81
2022/01/14 02:29:18;;;;;;;11.77;5.90;;;;;;;;;;5019437;28;20065;-80
2022/01/14 02:31:44;;;;;;;10.80;5.38;;;;;;;;;;5036773;28;20025;-80
2022/01/14 02:34:10;;;;;;;14.52;6.78;;;;;;;;;;5018321;28;20037;-81
2022/01/14 02:36:35;;;;;;;9.43;5.32;;;;;;;;;;5024403;28;20095;-82
2022/01/14 02:39:01;;;;;;;11.55;6.20;;;;;;;;;;5045629;28;20533;-79
2022/01/14 02:41:26;;;;;;;10.30;5.57;;;;;;;;;;5025292;28;20021;-81
2022/01/14 02:43:52;;;;;;;13.07;7.00;;;;;;;;;;5043100;28;20029;-82
2022/01/14 02:46:17;;;;;;;11.63;5.75;;;;;;;;;;5044263;28;20096;-82
2022/01/14 02:48:42;;;;;;;13.13;6.32;;;;;;;;;;5045237;28;20033;-81
2022/01/14 02:51:13;;;;;;;15.50;7.70;;;;;;;;;;5045138;28;20029;-81
2022/01/14 02:56:07;;;;;;;13.23;7.22;;;;;;;;;;5045622;28;20025;-81
2022/01/14 02:58:35;;;;;;;12.80;6.70;;;;;;;;;;5027320;28;20029;-79
2022/01/14 03:01:07;;;;;;;15.57;7.65;;;;;;;;;;5044075;28;20022;-81
2022/01/14 03:03:33;;;;;;;15.95;7.35;;;;;;;;;;5044484;28;20037;-80
2022/01/14 03:06:00;;;;;;;16.42;8.05;;;;;;;;;;5026419;28;20108;-81
2022/01/14 03:08:25;;;;;;;16.50;8.80;;;;;;;;;;5043827;28;20541;-80
2022/01/14 03:10:57;;;;;;;14.88;7.20;;;;;;;;;;5043138;28;20025;-82
2022/01/14 03:13:22;;;;;;;20.58;7.70;;;;;;;;;;5044447;28;20037;-81
2022/01/14 03:15:48;;;;;;;15.90;7.45;;;;;;;;;;5043829;28;20036;-82
2022/01/14 03:18:21;;;;;;;19.40;9.10;;;;;;;;;;5044894;28;20429;-81
2022/01/14 03:20:50;;;;;;;17.33;8.83;;;;;;;;;;5026947;28;20394;-81
2022/01/14 03:23:17;;;;;;;15.77;8.70;;;;;;;;;;5025928;28;20263;-80
2022/01/14 03:25:49;;;;;;;17.33;8.48;;;;;;;;;;5045403;28;20025;-80
2022/01/14 03:28:22;;;;;;;17.15;8.32;;;;;;;;;;5044293;28;20017;-80
2022/01/14 03:30:50;;;;;;;16.08;7.80;;;;;;;;;;5026710;28;20025;-81
2022/01/14 03:33:15;;;;;;;19.02;8.43;;;;;;;;;;5044821;28;20108;-82
2022/01/14 03:35:40;;;;;;;19.05;8.85;;;;;;;;;;5025892;28;20053;-81
2022/01/14 03:38:06;;;;;;;19.73;8.68;;;;;;;;;;5045022;28;20025;-81
2022/01/14 03:40:31;;;;;;;18.38;8.85;;;;;;;;;;5045127;28;20052;-79
2022/01/14 03:42:57;;;;;;;20.55;8.63;;;;;;;;;;5043489;28;20026;-82
2022/01/14 03:45:22;;;;;;;22.00;9.77;;;;;;;;;;5044715;28;20033;-80
2022/01/14 03:47:47;;;;;;;14.57;7.40;;;;;;;;;;5044254;28;20028;-82
2022/01/14 03:50:12;;;;;;;17.23;9.43;;;;;;;;;;5044659;28;20030;-80
2022/01/14 03:52:38;;;;;;;21.27;10.32;;;;;;;;;;5045417;28;20036;-81
2022/01/14 03:55:04;;;;;;;21.92;9.85;;;;;;;;;;5027517;28;20025;-81
2022/01/14 03:57:29;;;;;;;20.63;9.60;;;;;;;;;;5044696;28;20017;-79
2022/01/14 03:59:54;;;;;;;22.40;9.57;;;;;;;;;;5045883;28;20025;-83
2022/01/14 04:02:19;;;;;;;22.88;9.57;;;;;;;;;;5044170;28;20028;-80
2022/01/14 04:04:45;;;;;;;17.85;9.02;;;;;;;;;;5043661;28;20032;-81
2022/01/14 04:07:10;;;;;;;19.70;9.52;;;;;;;;;;5044560;28;20021;-81
2022/01/14 04:09:37;;;;;;;19.15;9.57;;;;;;;;;;5044741;28;20048;-81
2022/01/14 04:12:07;;;;;;;18.23;9.48;;;;;;;;;;5044508;28;20059;-81
2022/01/14 04:17:01;;;;;;;21.13;9.48;;;;;;;;;;5044169;28;20084;-79
2022/01/14 04:19:28;;;;;;;17.52;9.10;;;;;;;;;;5041848;28;20025;-80
2022/01/14 04:21:54;;;;;;;18.23;8.30;;;;;;;;;;5042775;28;20076;-79
2022/01/14 04:24:19;;;;;;;18.80;9.00;;;;;;;;;;5043876;28;20025;-82
2022/01/14 04:26:45;;;;;;;17.42;8.77;;;;;;;;;;5043715;28;20026;-81
2022/01/14 04:29:10;;;;;;;19.45;8.30;;;;;;;;;;5042618;28;20026;-80
2022/01/14 04:31:35;;;;;;;17.95;8.82;;;;;;;;;;5043437;28;20047;-81
2022/01/14 04:34:00;;;;;;;17.52;9.02;;;;;;;;;;5042294;28;20044;-79
2022/01/14 04:36:26;;;;;;;19.40;9.38;;;;;;;;;;5042375;28;20506;-80
2022/01/14 04:38:51;;;;;;;17.60;9.23;;;;;;;;;;5042357;28;20556;-80
2022/01/14 04:41:16;;;;;;;17.17;8.80;;;;;;;;;;5041829;28;20029;-81
2022/01/14 04:43:41;;;;;;;18.08;8.63;;;;;;;;;;5044378;28;20033;-81
2022/01/14 04:48:35;;;;;;;15.55;8.10;;;;;;;;;;5042208;28;20041;-82
2022/01/14 04:51:02;;;;;;;13.02;6.78;;;;;;;;;;5024824;28;20395;-80
2022/01/14 04:53:28;;;;;;;19.05;7.82;;;;;;;;;;5042522;28;20037;-81
2022/01/14 04:55:55;;;;;;;16.02;7.20;;;;;;;;;;5041307;28;20078;-81
2022/01/14 04:58:21;;;;;;;19.85;9.15;;;;;;;;;;5041573;28;20026;-79
2022/01/14 05:00:46;;;;;;;18.08;8.00;;;;;;;;;;5026176;28;20024;-81
2022/01/14 05:03:11;;;;;;;15.95;7.78;;;;;;;;;;5043309;28;20120;-81
2022/01/14 05:05:40;;;;;;;16.52;7.45;;;;;;;;;;5043283;28;20033;-81
2022/01/14 05:08:19;;;;;;;18.50;8.35;;;;;;;;;;5043895;28;20017;-81
2022/01/14 05:13:19;;;;;;;13.90;7.53;;;;;;;;;;5042054;28;20060;-80
2022/01/14 05:15:45;;;;;;;17.00;8.20;;;;;;;;;;5042310;28;20037;-81
2022/01/14 05:18:10;;;;;;;16.52;7.90;;;;;;;;;;5043539;28;20542;-80
2022/01/14 05:20:36;;;;;;;16.38;8.18;;;;;;;;;;5043247;28;20084;-79
2022/01/14 05:23:02;;;;;;;16.80;7.90;;;;;;;;;;5043652;28;20368;-81
2022/01/14 05:25:27;;;;;;;11.65;5.95;;;;;;;;;;5046351;28;20064;-81
2022/01/14 05:27:52;;;;;;;13.82;7.57;;;;;;;;;;5049935;28;20078;-80
2022/01/14 05:30:18;;;;;;;15.23;7.68;;;;;;;;;;5047362;28;20040;-82
2022/01/14 05:32:46;;;;;;;20.88;8.95;;;;;;;;;;5046535;28;20029;-81
2022/01/14 05:35:13;;;;;;;18.08;8.23;;;;;;;;;;5028135;28;20021;-80
2022/01/14 05:37:38;;;;;;;22.77;8.43;;;;;;;;;;5045811;28;20022;-81
2022/01/14 05:40:04;;;;;;;19.55;8.70;;;;;;;;;;5046898;28;20032;-80
2022/01/14 05:42:33;;;;;;;22.80;10.02;;;;;;;;;;5046852;28;20406;-81
2022/01/14 05:44:59;;;;;;;20.52;9.13;;;;;;;;;;5046082;28;20022;-81
2022/01/14 05:47:24;;;;;;;19.15;8.88;;;;;;;;;;5045488;28;20040;-81
2022/01/14 05:49:49;;;;;;;21.30;9.57;;;;;;;;;;5044286;28;20083;-81
2022/01/14 05:52:15;;;;;;;22.20;9.50;;;;;;;;;;5045459;28;20501;-81
2022/01/14 05:54:43;;;;;;;19.65;8.70;;;;;;;;;;5027375;28;20475;-81
2022/01/14 05:57:08;;;;;;;20.63;9.05;;;;;;;;;;5045518;28;20026;-80
2022/01/14 05:59:33;;;;;;;16.67;7.70;;;;;;;;;;5029438;28;20041;-79
2022/01/14 06:01:59;;;;;;;18.15;8.60;;;;;;;;;;5047355;28;20029;-81
2022/01/14 06:04:24;;;;;;;17.52;8.93;;;;;;;;;;5047845;28;20116;-81
2022/01/14 06:06:49;;;;;;;16.50;7.18;;;;;;;;;;5046420;28;20025;-80
2022/01/14 06:09:14;;;;;;;17.58;7.57;;;;;;;;;;5047134;28;20064;-80
2022/01/14 06:11:40;;;;;;;15.80;7.70;;;;;;;;;;5047027;28;20033;-81
2022/01/14 06:14:05;;;;;;;15.27;7.75;;;;;;;;;;5029325;28;20053;-80
2022/01/14 06:16:30;;;;;;;14.82;7.75;;;;;;;;;;5045656;28;20028;-79
2022/01/14 06:18:56;;;;;;;17.27;8.15;;;;;;;;;;5041861;28;20030;-79
2022/01/14 06:21:23;;;;;;;16.80;7.57;;;;;;;;;;5043303;28;20017;-79
2022/01/14 06:23:48;;;;;;;18.85;8.27;;;;;;;;;;5046556;28;20021;-80
2022/01/14 06:26:17;;;;;;;15.68;7.43;;;;;;;;;;5048755;28;20052;-80
2022/01/14 06:28:43;;;;;;;19.20;9.43;;;;;;;;;;5031298;28;20041;-78
2022/01/14 06:31:08;;;;;;;21.08;9.82;;;;;;;;;;5027583;28;20022;-81
2022/01/14 06:33:36;;;;;;;25.52;10.60;;;;;;;;;;5028554;28;20028;-82
2022/01/14 06:36:02;;;;;;;20.95;9.70;;;;;;;;;;5026521;28;20518;-81
2022/01/14 06:38:27;;;;;;;20.15;8.43;;;;;;;;;;5040109;28;20034;-79
2022/01/14 06:40:53;;;;;;;20.92;10.25;;;;;;;;;;5022105;28;20059;-80
2022/01/14 06:43:18;;;;;;;26.58;11.55;;;;;;;;;;5041274;28;20045;-78
2022/01/14 06:45:43;;;;;;;25.65;11.25;;;;;;;;;;5023702;28;20022;-79
2022/01/14 06:48:09;;;;;;;27.35;11.60;;;;;;;;;;5032984;28;20025;-80
2022/01/14 06:50:35;;;;;;;30.20;11.07;;;;;;;;;;5059632;28;20060;-80
2022/01/14 06:53:01;;;;;;;29.00;11.48;;;;;;;;;;5043525;28;20055;-80
2022/01/14 06:55:26;;;;;;;24.45;11.30;;;;;;;;;;5060551;28;20010;-83
2022/01/14 06:57:51;;;;;;;28.35;11.57;;;;;;;;;;5059887;28;20051;-80
2022/01/14 07:00:21;;;;;;;28.08;11.10;;;;;;;;;;5043338;28;20006;-80
2022/01/14 07:02:46;;;;;;;25.33;11.10;;;;;;;;;;5043175;28;20018;-79
2022/01/14 07:05:14;;;;;;;24.85;10.15;;;;;;;;;;5043196;28;20048;-81
2022/01/14 07:07:41;;;;;;;26.95;10.63;;;;;;;;;;5059942;28;20028;-80
2022/01/14 07:10:07;;;;;;;25.65;11.80;;;;;;;;;;5059557;28;20526;-81
2022/01/14 07:12:39;;;;;;;28.13;11.77;;;;;;;;;;5060225;28;20012;-81
2022/01/14 07:15:08;;;;;;;29.30;11.40;;;;;;;;;;5042884;28;20036;-82
2022/01/14 07:17:33;;;;;;;24.73;11.10;;;;;;;;;;5059914;28;20005;-80
2022/01/14 07:20:05;;;;;;;24.98;10.98;;;;;;;;;;5046676;28;20121;-80
2022/01/14 07:22:30;;;;;;;26.30;11.32;;;;;;;;;;5039463;28;20064;-81
2022/01/14 07:24:56;;;;;;;25.73;11.32;;;;;;;;;;5038833;28;20033;-81
2022/01/14 07:27:24;;;;;;;24.35;10.63;;;;;;;;;;5039968;28;20104;-80
2022/01/14 07:29:49;;;;;;;26.02;11.40;;;;;;;;;;5039273;28;20036;-79
2022/01/14 07:32:14;;;;;;;25.15;11.10;;;;;;;;;;5037596;28;20104;-79
2022/01/14 07:34:40;;;;;;;28.80;10.95;;;;;;;;;;5037948;28;20033;-81
2022/01/14 07:37:05;;;;;;;26.77;11.15;;;;;;;;;;5019245;28;20387;-83
2022/01/14 07:39:30;;;;;;;27.15;10.80;;;;;;;;;;5019827;28;20033;-83
2022/01/14 07:41:56;;;;;;;26.33;10.18;;;;;;;;;;5037119;28;20056;-80
2022/01/14 07:44:21;;;;;;;27.95;11.45;;;;;;;;;;5020937;28;20198;-81
2022/01/14 07:46:51;;;;;;;29.20;10.95;;;;;;;;;;5019340;28;20025;-80
2022/01/14 07:49:23;;;;;;;25.40;10.75;;;;;;;;;;5035593;28;20041;-81
2022/01/14 07:51:49;;;;;;;24.73;10.32;;;;;;;;;;5037040;28;20028;-81
2022/01/14 07:54:14;;;;;;;26.85;10.93;;;;;;;;;;5037138;28;20096;-82
2022/01/14 07:56:47;;;;;;;22.83;10.35;;;;;;;;;;5020088;28;20022;-80
2022/01/14 07:59:15;;;;;;;27.27;12.67;;;;;;;;;;5037622;28;20025;-81
2022/01/14 08:01:41;;;;;;;32.35;11.45;;;;;;;;;;5038099;28;20036;-81
2022/01/14 08:04:07;;;;;;;25.10;11.48;;;;;;;;;;5037430;28;20032;-81
2022/01/14 08:06:37;;;;;;;23.48;10.05;;;;;;;;;;5020235;28;20025;-81
2022/01/14 08:09:02;;;;;;;24.63;10.82;;;;;;;;;;5037677;28;20033;-80
2022/01/14 08:11:27;;;;;;;22.42;10.13;;;;;;;;;;5037674;28;20029;-82
2022/01/14 08:13:55;;;;;;;20.67;9.43;;;;;;;;;;5038231;28;20367;-82
2022/01/14 08:16:21;;;;;;;19.27;8.93;;;;;;;;;;5019500;28;20056;-81
2022/01/14 08:18:46;;;;;;;18.88;8.48;;;;;;;;;;5038545;28;20026;-80
2022/01/14 08:21:11;;;;;;;18.85;7.72;;;;;;;;;;5041979;28;20030;-81
2022/01/14 08:23:39;;;;;;;14.50;6.78;;;;;;;;;;5043079;28;20032;-80
2022/01/14 08:26:04;;;;;;;19.88;8.93;;;;;;;;;;5025641;28;20029;-81
2022/01/14 08:28:29;;;;;;;19.58;8.20;;;;;;;;;;5043536;28;20482;-79
2022/01/14 08:30:55;;;;;;;18.27;8.70;;;;;;;;;;5043521;28;20030;-80
2022/01/14 08:33:20;;;;;;;19.67;7.80;;;;;;;;;;5045535;28;20032;-81
2022/01/14 08:35:46;;;;;;;20.27;7.40;;;;;;;;;;5027055;28;20028;-83
2022/01/14 08:38:12;;;;;;;16.02;7.32;;;;;;;;;;5026218;28;20021;-81
2022/01/14 08:40:38;;;;;;;14.40;6.97;;;;;;;;;;5027670;28;20025;-82
2022/01/14 08:43:03;;;;;;;16.17;6.70;;;;;;;;;;5027283;28;20485;-82
2022/01/14 08:45:29;;;;;;;14.68;6.45;;;;;;;;;;5044684;28;20022;-80
2022/01/14 08:47:55;;;;;;;11.50;5.40;;;;;;;;;;5044174;28;20116;-82
2022/01/14 08:50:30;;;;;;;13.93;6.35;;;;;;;;;;5042053;28;20104;-80
2022/01/14 08:52:56;;;;;;;11.93;5.85;;;;;;;;;;5040620;28;20032;-84
2022/01/14 08:55:22;;;;;;;10.32;5.25;;;;;;;;;;5021696;28;20026;-82
2022/01/14 08:57:48;;;;;;;17.50;5.65;;;;;;;;;;5042460;28;20028;-81
2022/01/14 09:00:16;;;;;;;9.52;4.97;;;;;;;;;;5027437;28;20356;-80
2022/01/14 09:02:41;;;;;;;8.93;4.97;;;;;;;;;;5026807;28;20060;-82
2022/01/14 09:05:08;;;;;;;10.50;4.75;;;;;;;;;;5044883;28;20085;-83
2022/01/14 09:07:34;;;;;;;11.43;5.60;;;;;;;;;;5043684;28;20029;-81
2022/01/14 09:09:59;;;;;;;10.65;5.07;;;;;;;;;;5044834;28;20033;-83
2022/01/14 09:12:27;;;;;;;8.27;4.35;;;;;;;;;;5027741;28;20390;-83
2022/01/14 09:14:52;;;;;;;7.38;4.30;;;;;;;;;;5044547;28;20107;-82
2022/01/14 09:17:18;;;;;;;11.73;5.90;;;;;;;;;;5043912;28;20468;-80
2022/01/14 09:19:44;;;;;;;12.48;5.50;;;;;;;;;;5027772;28;20494;-81
2022/01/14 09:22:15;;;;;;;11.82;5.25;;;;;;;;;;5045455;28;20422;-82
2022/01/14 09:24:41;;;;;;;13.38;5.85;;;;;;;;;;5044113;28;20017;-81
2022/01/14 09:27:06;;;;;;;15.30;6.97;;;;;;;;;;5042531;28;20020;-79
2022/01/14 09:29:31;;;;;;;17.73;6.82;;;;;;;;;;5045797;28;20029;-81
2022/01/14 09:31:57;;;;;;;12.57;4.90;;;;;;;;;;5048849;28;20048;-81
2022/01/14 09:34:22;;;;;;;14.23;7.18;;;;;;;;;;5047009;28;20041;-79
2022/01/14 09:36:50;;;;;;;18.85;7.93;;;;;;;;;;5046926;28;20593;-81
2022/01/14 09:39:15;;;;;;;15.00;8.48;;;;;;;;;;5046779;28;20021;-81
2022/01/14 09:41:41;;;;;;;18.00;7.35;;;;;;;;;;5048201;28;20532;-79
2022/01/14 09:44:06;;;;;;;17.70;7.45;;;;;;;;;;5030980;28;20060;-81
2022/01/14 09:46:31;;;;;;;17.02;7.65;;;;;;;;;;5047059;28;20144;-80
2022/01/14 09:48:57;;;;;;;23.42;9.27;;;;;;;;;;5048680;28;20064;-78
2022/01/14 09:51:22;;;;;;;22.80;9.80;;;;;;;;;;5046182;28;20025;-82
2022/01/14 09:53:48;;;;;;;18.83;8.80;;;;;;;;;;5047825;28;20099;-78
2022/01/14 09:56:18;;;;;;;11.90;5.88;;;;;;;;;;5046519;28;20483;-82
2022/01/14 09:58:48;;;;;;;22.35;10.23;;;;;;;;;;5046304;28;20026;-81
2022/01/14 10:01:20;;;;;;;23.67;9.88;;;;;;;;;;5031623;28;20052;-80
2022/01/14 10:03:53;;;;;;;26.15;10.75;;;;;;;;;;5048457;28;20029;-82
2022/01/14 10:06:37;;;;;;;27.00;10.83;;;;;;;;;;5048638;28;20450;-80
2022/01/14 10:09:08;;;;;;;27.35;10.30;;;;;;;;;;5048773;28;20269;-81
2022/01/14 10:11:33;;;;;;;24.83;10.13;;;;;;;;;;5048799;28;20025;-80
2022/01/14 10:14:07;;;;;;;17.80;8.43;;;;;;;;;;5047107;28;20049;-80
2022/01/14 10:16:32;;;;;;;25.67;10.38;;;;;;;;;;5048034;28;20537;-81
2022/01/14 10:18:58;;;;;;;23.38;8.50;;;;;;;;;;5047535;28;20083;-80
2022/01/14 10:21:31;;;;;;;24.85;9.75;;;;;;;;;;5047163;28;20446;-81
2022/01/14 10:23:56;;;;;;;20.23;9.43;;;;;;;;;;5047497;28;20022;-79
2022/01/14 10:26:21;;;;;;;21.67;10.25;;;;;;;;;;5047549;28;20168;-82
2022/01/14 10:29:01;;;;;;;26.15;10.40;;;;;;;;;;5028981;28;20403;-82
2022/01/14 10:31:32;;;;;;;21.58;9.80;;;;;;;;;;5045046;28;20029;-81
2022/01/14 10:34:10;;;;;;;21.25;9.25;;;;;;;;;;5046091;28;20105;-82
2022/01/14 10:36:35;;;;;;;20.25;8.75;;;;;;;;;;5028125;28;20025;-81
2022/01/14 10:39:17;;;;;;;22.30;10.25;;;;;;;;;;5029036;28;20022;-82
2022/01/14 10:41:42;;;;;;;22.10;10.32;;;;;;;;;;5031061;28;20424;-81
2022/01/14 10:44:29;;;;;;;11.25;5.95;;;;;;;;;;5048767;28;20079;-81
2022/01/14 10:47:14;;;;;;;20.38;9.88;;;;;;;;;;5049322;28;20029;-81
2022/01/14 10:49:42;;;;;;;23.50;10.32;;;;;;;;;;5032171;28;20036;-81
2022/01/14 10:52:13;;;;;;;26.02;10.43;;;;;;;;;;5048135;28;20033;-79
2022/01/14 10:54:59;;;;;;;22.45;9.48;;;;;;;;;;5047400;28;20029;-80
2022/01/14 10:57:27;;;;;;;14.27;7.38;;;;;;;;;;5047611;28;20063;-82
2022/01/14 11:00:15;;;;;;;19.70;9.23;;;;;;;;;;5048069;28;20036;-82
2022/01/14 11:02:45;;;;;;;14.13;6.55;;;;;;;;;;5047752;28;20045;-80
2022/01/14 11:05:22;;;;;;;20.50;9.05;;;;;;;;;;5047598;28;20025;-81
2022/01/14 11:07:49;;;;;;;24.75;9.93;;;;;;;;;;5047222;28;20021;-81
2022/01/14 11:10:19;;;;;;;19.55;9.55;;;;;;;;;;5046849;28;20081;-81
2022/01/14 11:12:45;;;;;;;22.13;9.27;;;;;;;;;;5046133;28;20026;-80
2022/01/14 11:15:12;;;;;;;21.48;9.85;;;;;;;;;;5048073;28;20029;-80
2022/01/14 11:17:38;;;;;;;26.80;10.65;;;;;;;;;;5048109;28;20029;-79
2022/01/14 11:20:06;;;;;;;22.33;10.20;;;;;;;;;;5029892;28;20035;-82
2022/01/14 11:25:16;;;;;;;20.27;9.40;;;;;;;;;;5047249;28;20478;-81
2022/01/14 11:27:47;;;;;;;24.20;11.45;;;;;;;;;;5047172;28;20018;-81
2022/01/14 11:30:13;;;;;;;21.55;9.95;;;;;;;;;;5047796;28;20037;-80
2022/01/14 11:32:53;;;;;;;24.40;10.63;;;;;;;;;;5045170;28;20399;-81
2022/01/14 11:35:20;;;;;;;24.15;9.95;;;;;;;;;;5044357;28;20029;-80
2022/01/14 11:37:46;;;;;;;24.98;9.98;;;;;;;;;;5045182;28;20491;-81
2022/01/14 11:40:13;;;;;;;23.90;10.57;;;;;;;;;;5043133;28;20025;-80
2022/01/14 11:42:42;;;;;;;24.63;10.40;;;;;;;;;;5044299;28;20030;-79
2022/01/14 11:45:12;;;;;;;23.08;10.38;;;;;;;;;;5044053;28;20395;-80
2022/01/14 11:47:41;;;;;;;28.08;11.05;;;;;;;;;;5043752;28;20108;-81
2022/01/14 11:50:19;;;;;;;25.42;9.95;;;;;;;;;;5046254;28;20086;-81
2022/01/14 11:52:46;;;;;;;23.00;10.30;;;;;;;;;;5045886;28;20025;-81
2022/01/14 11:55:30;;;;;;;23.50;10.35;;;;;;;;;;5044964;28;20025;-81
2022/01/14 11:58:06;;;;;;;21.42;9.75;;;;;;;;;;5045329;28;20031;-81
2022/01/14 12:00:37;;;;;;;20.80;10.43;;;;;;;;;;5042392;28;20033;-80
2022/01/14 12:03:15;;;;;;;21.05;10.38;;;;;;;;;;5043829;28;20128;-80
2022/01/14 12:05:50;;;;;;;24.30;10.90;;;;;;;;;;5043224;28;20029;-79
2022/01/14 12:08:17;;;;;;;24.88;10.80;;;;;;;;;;5044014;28;20017;-79
2022/01/14 12:10:53;;;;;;;22.98;10.38;;;;;;;;;;5043521;28;20116;-79
2022/01/14 12:13:26;;;;;;;24.77;9.88;;;;;;;;;;5043467;28;20100;-80
2022/01/14 12:16:03;;;;;;;23.40;11.00;;;;;;;;;;5043156;28;20030;-79
2022/01/14 12:18:56;;;;;;;25.10;11.63;;;;;;;;;;5043997;28;20549;-79
2022/01/14 12:21:43;;;;;;;21.63;8.85;;;;;;;;;;5043113;28;20029;-80
2022/01/14 12:24:15;;;;;;;21.33;10.02;;;;;;;;;;5042577;28;20022;-80
2022/01/14 12:26:41;;;;;;;22.75;10.40;;;;;;;;;;5023177;28;20577;-80
2022/01/14 12:29:12;;;;;;;23.10;10.30;;;;;;;;;;5043196;28;20038;-79
2022/01/14 12:32:09;;;;;;;18.58;9.00;;;;;;;;;;5041733;28;20483;-79
2022/01/14 12:35:00;;;;;;;23.63;10.55;;;;;;;;;;5042707;28;20017;-81
2022/01/14 12:37:31;;;;;;;25.33;10.90;;;;;;;;;;5042066;28;20081;-80
2022/01/14 12:40:03;;;;;;;24.60;11.20;;;;;;;;;;5024341;28;20031;-80
2022/01/14 12:42:29;;;;;;;24.73;10.82;;;;;;;;;;5040682;28;20028;-80
2022/01/14 12:44:54;;;;;;;23.60;11.32;;;;;;;;;;5026288;28;20025;-81
2022/01/14 12:47:25;;;;;;;22.90;10.10;;;;;;;;;;5024319;28;20037;-81
2022/01/14 12:49:51;;;;;;;24.42;10.88;;;;;;;;;;5041510;28;20048;-81
2022/01/14 12:52:29;;;;;;;26.10;10.77;;;;;;;;;;5043899;28;20049;-79
2022/01/14 12:54:55;;;;;;;23.67;10.55;;;;;;;;;;5042853;28;20025;-80
2022/01/14 12:57:24;;;;;;;20.60;10.38;;;;;;;;;;5044407;28;20057;-81
2022/01/14 12:59:52;;;;;;;21.63;9.80;;;;;;;;;;5044047;28;20026;-81
2022/01/14 13:02:22;;;;;;;27.42;9.73;;;;;;;;;;5023541;28;20433;-80
2022/01/14 13:05:15;;;;;;;22.52;10.05;;;;;;;;;;5041212;28;20036;-81
2022/01/14 13:07:42;;;;;;;20.33;9.85;;;;;;;;;;5040874;28;20056;-80
2022/01/14 13:10:09;;;;;;;21.23;10.07;;;;;;;;;;5022930;28;20083;-80
2022/01/14 13:12:40;;;;;;;21.67;10.48;;;;;;;;;;5040723;28;20049;-81
2022/01/14 13:15:20;;;;;;;17.90;8.88;;;;;;;;;;5041197;28;20036;-81
2022/01/14 13:17:59;;;;;;;22.65;10.48;;;;;;;;;;5040488;28;20037;-80
2022/01/14 13:20:26;;;;;;;22.13;10.65;;;;;;;;;;5022866;28;20103;-80
2022/01/14 13:22:51;;;;;;;23.13;11.82;;;;;;;;;;5040235;28;20122;-80
2022/01/14 13:25:22;;;;;;;24.75;11.65;;;;;;;;;;5024424;28;20025;-81
2022/01/14 13:27:54;;;;;;;28.08;12.02;;;;;;;;;;5040676;28;20021;-80
2022/01/14 13:30:33;;;;;;;27.60;11.52;;;;;;;;;;5041262;28;20052;-79
2022/01/14 13:33:01;;;;;;;22.75;11.00;;;;;;;;;;5041481;28;20086;-79
2022/01/14 13:35:35;;;;;;;24.98;11.75;;;;;;;;;;5041890;28;20021;-80
2022/01/14 13:38:06;;;;;;;30.00;12.63;;;;;;;;;;5043370;28;20022;-80
2022/01/14 13:40:33;;;;;;;25.48;11.52;;;;;;;;;;5043040;28;20259;-79
2022/01/14 13:43:07;;;;;;;30.65;12.52;;;;;;;;;;5042965;28;20059;-79
2022/01/14 13:45:34;;;;;;;34.17;12.75;;;;;;;;;;5046453;28;20043;-79
2022/01/14 13:48:09;;;;;;;25.40;12.15;;;;;;;;;;5046973;28;20025;-80
2022/01/14 13:50:43;;;;;;;28.98;12.90;;;;;;;;;;5048501;28;20031;-78
2022/01/14 13:53:10;;;;;;;;;;;;;;;;;;5047229;28;20021;-81
2022/01/14 13:55:39;;;;;;;28.48;12.02;;;;;;;;;;5048047;28;20003;-78
2022/01/14 13:58:12;;;;;;;29.13;12.45;;;;;;;;;;5046436;28;20026;-80
2022/01/14 14:00:39;;;;;;;31.07;12.57;;;;;;;;;;5046683;28;20029;-80
2022/01/14 14:03:13;;;;;;;28.33;12.75;;;;;;;;;;5046243;28;20255;-80
2022/01/14 14:05:46;;;;;;;26.48;12.60;;;;;;;;;;5046553;28;20025;-80
2022/01/14 14:08:19;;;;;;;31.00;12.83;;;;;;;;;;5028958;28;20486;-81
2022/01/14 14:16:32;;;;;;;34.25;12.90;;;;;;;;;;5046006;28;20040;-79
2022/01/14 14:18:58;;;;;;;29.23;11.95;;;;;;;;;;5044639;28;20043;-79
2022/01/14 14:21:28;;;;;;;27.27;11.60;;;;;;;;;;5046624;28;20025;-80
2022/01/14 14:23:58;;;;;;;24.65;11.10;;;;;;;;;;5046446;28;20028;-79
2022/01/14 14:26:31;;;;;;;23.95;11.05;;;;;;;;;;5045538;28;20080;-81
2022/01/14 14:29:28;;;;;;;25.95;11.98;;;;;;;;;;5045971;28;20029;-80
2022/01/14 14:31:53;;;;;;;23.02;11.13;;;;;;;;;;5039670;28;20037;-80
2022/01/14 14:34:18;;;;;;;24.55;11.75;;;;;;;;;;5045762;28;20040;-79
2022/01/14 14:36:44;;;;;;;24.55;11.00;;;;;;;;;;5044887;28;20048;-79
2022/01/14 14:39:11;;;;;;;24.75;11.32;;;;;;;;;;5044743;28;20052;-79
2022/01/14 14:41:38;;;;;;;27.55;11.93;;;;;;;;;;5042860;28;20026;-79
2022/01/14 14:44:04;;;;;;;21.80;10.93;;;;;;;;;;5043806;28;20378;-79
2022/01/14 14:46:31;;;;;;;27.35;10.52;;;;;;;;;;5043551;28;20044;-79
2022/01/14 14:48:57;;;;;;;18.15;8.30;;;;;;;;;;5044315;28;20064;-78
2022/01/14 14:51:22;;;;;;;27.63;12.02;;;;;;;;;;5026502;28;20041;-81
2022/01/14 14:53:50;;;;;;;23.55;11.57;;;;;;;;;;5044127;28;20029;-80
2022/01/14 14:56:15;;;;;;;24.35;10.82;;;;;;;;;;5043562;28;20022;-80
2022/01/14 14:58:41;;;;;;;26.20;11.85;;;;;;;;;;5026064;28;20021;-80
2022/01/14 15:01:09;;;;;;;25.73;11.48;;;;;;;;;;5043653;28;20029;-79
2022/01/14 15:03:38;;;;;;;24.15;11.23;;;;;;;;;;5026285;28;20025;-80
2022/01/14 15:06:05;;;;;;;25.58;11.15;;;;;;;;;;5043905;28;20025;-80